Terminal Aerodrome Forecast
Issued by NWS

Home | Current Version | Previous Version | Text Only | Print | Product List | Glossary On
Versions: 1 2 3 4 5 6 7 8 9 10 11 12 13 14 15 16 17 18 19 20 21 22 23 24
000
FTUS43 KABR 111343 AAA
TAFATY
TAF AMD
KATY 111343Z 1114/1212 08008KT P6SM OVC025
     FM111900 30012KT P6SM OVC008
     FM112300 30009KT P6SM SCT030
     FM121000 VRB04KT P6SM BKN100=

USA.gov is the U.S. government's official web portal to all federal, state and local government web resources and services.